This is the latest recevied weather packets stored in our database for station/object CT2IRJ-11. If no packets are shown the sender has not sent any weather packets the latest 10 day(s).
| Time | Temp. | Humidity | Pressure | Rain* | Wind** | Luminosity | Snow |
|---|---|---|---|---|---|---|---|
| 1777992210 | 21.67° C | 53% | 1015.9 hPa | 0 mm | - | 215 W/m² | - |
| 1777991912 | 20.56° C | 54% | 1015.9 hPa | 0 mm | - | 308 W/m² | - |
| 1777991611 | 20° C | 56% | 1015.9 hPa | 0 mm | - | 171 W/m² | - |
| 1777991310 | 20° C | 55% | 1016.3 hPa | 0 mm | - | 193 W/m² | - |
| 1777991010 | 20.56° C | 55% | 1016.3 hPa | 0 mm | - | 216 W/m² | - |
| 1777990710 | 22.22° C | 53% | 1015.9 hPa | 0 mm | - | 271 W/m² | - |
| 1777990410 | 20.56° C | 56% | 1016.6 hPa | 0 mm | - | 750 W/m² | - |
| 1777989811 | 18.89° C | 60% | 1015.9 hPa | 0 mm | - | 278 W/m² | - |
| 1777989509 | 20° C | 57% | 1016.3 hPa | 0 mm | - | 191 W/m² | - |
| 1777989210 | 20° C | 54% | 1016.3 hPa | 0 mm | - | 214 W/m² | - |
| 1777988910 | 20.56° C | 51% | 1016.6 hPa | 0 mm | - | 299 W/m² | - |
| 1777988609 | 21.67° C | 49% | 1016.3 hPa | 0 mm | - | 458 W/m² | - |
| 1777988310 | 20.56° C | 54% | 1016.6 hPa | 0 mm | - | 325 W/m² | - |
| 1777988009 | 20.56° C | 56% | 1016.3 hPa | 0 mm | - | 316 W/m² | - |
| 1777987711 | 20.56° C | 54% | 1015.9 hPa | 0 mm | - | 368 W/m² | - |
| 1777987411 | 21.11° C | 53% | 1016.3 hPa | 0 mm | - | 665 W/m² | - |
| 1777987113 | 21.11° C | 53% | 1016.3 hPa | 0 mm | - | 439 W/m² | - |
| 1777986810 | 20.56° C | 53% | 1016.6 hPa | 0 mm | - | 812 W/m² | - |
| 1777986512 | 20.56° C | 54% | 1016.6 hPa | 0 mm | - | 494 W/m² | - |
| 1777986209 | 21.11° C | 53% | 1016.6 hPa | 0 mm | - | 255 W/m² | - |
| 1777985910 | 19.44° C | 57% | 1016.6 hPa | 0 mm | - | 924 W/m² | - |
| 1777985609 | 19.44° C | 56% | 1016.6 hPa | 0 mm | - | 272 W/m² | - |
| 1777985309 | 18.33° C | 61% | 1016.6 hPa | 0 mm | - | 233 W/m² | - |
| 1777985010 | 18.33° C | 60% | 1016.6 hPa | 0 mm | - | 138 W/m² | - |
| 1777984709 | 18.89° C | 58% | 1016.6 hPa | 0 mm | - | 98 W/m² | - |
* Rain latest hour (hover to see other rain measurements)
** Current wind speed in m/s (hover to see current wind gust speed)